sensor_id;sensor_type;location;lat;lon;timestamp;temperature;humidity
74376;HTU21D;62812;55.188;61.302;2023-03-12T00:00:54;-4.20;50.94
74376;HTU21D;62812;55.188;61.302;2023-03-12T00:03:21;-4.28;51.24
74376;HTU21D;62812;55.188;61.302;2023-03-12T00:05:49;-4.31;51.29
74376;HTU21D;62812;55.188;61.302;2023-03-12T00:08:17;-4.36;51.25
74376;HTU21D;62812;55.188;61.302;2023-03-12T00:10:44;-4.39;52.05
74376;HTU21D;62812;55.188;61.302;2023-03-12T00:13:10;-4.42;51.66
74376;HTU21D;62812;55.188;61.302;2023-03-12T00:15:37;-4.38;51.59
74376;HTU21D;62812;55.188;61.302;2023-03-12T00:18:04;-4.39;51.51
74376;HTU21D;62812;55.188;61.302;2023-03-12T00:20:31;-4.39;52.07
74376;HTU21D;62812;55.188;61.302;2023-03-12T00:22:58;-4.39;51.80
74376;HTU21D;62812;55.188;61.302;2023-03-12T00:25:25;-4.37;51.77
74376;HTU21D;62812;55.188;61.302;2023-03-12T00:27:52;-4.38;51.30
74376;HTU21D;62812;55.188;61.302;2023-03-12T00:30:18;-4.41;51.77
74376;HTU21D;62812;55.188;61.302;2023-03-12T00:32:45;-4.45;51.65
74376;HTU21D;62812;55.188;61.302;2023-03-12T00:35:11;-4.49;52.13
74376;HTU21D;62812;55.188;61.302;2023-03-12T00:37:38;-4.52;52.22
74376;HTU21D;62812;55.188;61.302;2023-03-12T00:40:05;-4.52;51.95
74376;HTU21D;62812;55.188;61.302;2023-03-12T00:42:35;-4.54;51.50
74376;HTU21D;62812;55.188;61.302;2023-03-12T00:45:01;-4.61;51.89
74376;HTU21D;62812;55.188;61.302;2023-03-12T00:47:28;-4.66;52.27
74376;HTU21D;62812;55.188;61.302;2023-03-12T00:49:54;-4.65;52.40
74376;HTU21D;62812;55.188;61.302;2023-03-12T00:52:21;-4.63;52.82
74376;HTU21D;62812;55.188;61.302;2023-03-12T00:54:47;-4.66;52.16
74376;HTU21D;62812;55.188;61.302;2023-03-12T00:57:14;-4.68;53.48
74376;HTU21D;62812;55.188;61.302;2023-03-12T00:59:42;-4.74;53.68
74376;HTU21D;62812;55.188;61.302;2023-03-12T01:02:08;-4.75;53.26
74376;HTU21D;62812;55.188;61.302;2023-03-12T01:04:35;-4.78;54.24
74376;HTU21D;62812;55.188;61.302;2023-03-12T01:07:01;-4.75;55.20
74376;HTU21D;62812;55.188;61.302;2023-03-12T01:09:27;-4.73;55.10
74376;HTU21D;62812;55.188;61.302;2023-03-12T01:11:54;-4.78;54.89
74376;HTU21D;62812;55.188;61.302;2023-03-12T01:14:20;-4.81;54.81
74376;HTU21D;62812;55.188;61.302;2023-03-12T01:16:48;-4.83;55.16
74376;HTU21D;62812;55.188;61.302;2023-03-12T01:19:14;-4.85;56.48
74376;HTU21D;62812;55.188;61.302;2023-03-12T01:21:41;-4.88;55.06
74376;HTU21D;62812;55.188;61.302;2023-03-12T01:24:08;-4.91;55.35
74376;HTU21D;62812;55.188;61.302;2023-03-12T01:26:34;-4.93;55.26
74376;HTU21D;62812;55.188;61.302;2023-03-12T01:29:00;-4.97;56.00
74376;HTU21D;62812;55.188;61.302;2023-03-12T01:31:27;-4.99;55.10
74376;HTU21D;62812;55.188;61.302;2023-03-12T01:33:55;-5.01;54.01
74376;HTU21D;62812;55.188;61.302;2023-03-12T01:36:23;-5.03;54.22
74376;HTU21D;62812;55.188;61.302;2023-03-12T01:38:50;-5.02;55.86
74376;HTU21D;62812;55.188;61.302;2023-03-12T01:41:17;-5.01;55.68
74376;HTU21D;62812;55.188;61.302;2023-03-12T01:43:44;-5.04;55.75
74376;HTU21D;62812;55.188;61.302;2023-03-12T01:46:25;-5.08;54.72
74376;HTU21D;62812;55.188;61.302;2023-03-12T01:48:57;-5.12;55.56
74376;HTU21D;62812;55.188;61.302;2023-03-12T01:51:27;-5.13;54.49
74376;HTU21D;62812;55.188;61.302;2023-03-12T01:53:57;-5.12;53.85
74376;HTU21D;62812;55.188;61.302;2023-03-12T01:56:27;-5.12;54.14
74376;HTU21D;62812;55.188;61.302;2023-03-12T01:58:56;-5.16;54.58
74376;HTU21D;62812;55.188;61.302;2023-03-12T02:01:24;-5.18;53.94
74376;HTU21D;62812;55.188;61.302;2023-03-12T02:03:52;-5.19;53.78
74376;HTU21D;62812;55.188;61.302;2023-03-12T02:06:23;-5.22;53.76
74376;HTU21D;62812;55.188;61.302;2023-03-12T02:08:51;-5.18;54.61
74376;HTU21D;62812;55.188;61.302;2023-03-12T02:11:18;-5.19;54.94
74376;HTU21D;62812;55.188;61.302;2023-03-12T02:13:45;-5.22;54.47
74376;HTU21D;62812;55.188;61.302;2023-03-12T02:16:11;-5.20;53.89
74376;HTU21D;62812;55.188;61.302;2023-03-12T02:18:37;-5.23;55.11
74376;HTU21D;62812;55.188;61.302;2023-03-12T02:21:12;-5.23;54.44
74376;HTU21D;62812;55.188;61.302;2023-03-12T02:23:45;-5.20;54.23
74376;HTU21D;62812;55.188;61.302;2023-03-12T02:26:15;-5.18;53.75
74376;HTU21D;62812;55.188;61.302;2023-03-12T02:28:42;-5.23;54.84
74376;HTU21D;62812;55.188;61.302;2023-03-12T02:31:12;-5.23;54.71
74376;HTU21D;62812;55.188;61.302;2023-03-12T02:33:39;-5.20;54.34
74376;HTU21D;62812;55.188;61.302;2023-03-12T02:36:06;-5.19;54.94
74376;HTU21D;62812;55.188;61.302;2023-03-12T02:38:39;-5.13;56.05
74376;HTU21D;62812;55.188;61.302;2023-03-12T02:41:12;-5.03;57.41
74376;HTU21D;62812;55.188;61.302;2023-03-12T02:43:43;-4.91;58.08
74376;HTU21D;62812;55.188;61.302;2023-03-12T02:46:10;-4.74;59.07
74376;HTU21D;62812;55.188;61.302;2023-03-12T02:48:37;-4.57;57.93
74376;HTU21D;62812;55.188;61.302;2023-03-12T02:51:07;-4.40;56.77
74376;HTU21D;62812;55.188;61.302;2023-03-12T02:53:34;-4.38;56.96
74376;HTU21D;62812;55.188;61.302;2023-03-12T02:56:01;-4.22;56.55
74376;HTU21D;62812;55.188;61.302;2023-03-12T02:58:27;-4.01;55.71
74376;HTU21D;62812;55.188;61.302;2023-03-12T03:00:55;-3.76;55.00
74376;HTU21D;62812;55.188;61.302;2023-03-12T03:03:22;-3.51;55.16
74376;HTU21D;62812;55.188;61.302;2023-03-12T03:05:49;-3.40;54.69
74376;HTU21D;62812;55.188;61.302;2023-03-12T03:08:15;-3.24;54.13
74376;HTU21D;62812;55.188;61.302;2023-03-12T03:10:42;-2.94;52.85
74376;HTU21D;62812;55.188;61.302;2023-03-12T03:13:11;-2.74;51.82
74376;HTU21D;62812;55.188;61.302;2023-03-12T03:15:41;-2.66;49.94
74376;HTU21D;62812;55.188;61.302;2023-03-12T03:18:09;-2.64;49.72
74376;HTU21D;62812;55.188;61.302;2023-03-12T03:20:35;-2.49;50.40
74376;HTU21D;62812;55.188;61.302;2023-03-12T03:23:02;-2.35;50.37
74376;HTU21D;62812;55.188;61.302;2023-03-12T03:25:29;-2.16;50.43
74376;HTU21D;62812;55.188;61.302;2023-03-12T03:27:59;-2.00;50.85
74376;HTU21D;62812;55.188;61.302;2023-03-12T03:30:25;-1.97;51.94
74376;HTU21D;62812;55.188;61.302;2023-03-12T03:32:52;-1.78;50.27
74376;HTU21D;62812;55.188;61.302;2023-03-12T03:35:22;-1.70;49.69
74376;HTU21D;62812;55.188;61.302;2023-03-12T03:37:52;-1.48;49.60
74376;HTU21D;62812;55.188;61.302;2023-03-12T03:40:21;-1.16;48.60
74376;HTU21D;62812;55.188;61.302;2023-03-12T03:42:48;-1.02;48.30
74376;HTU21D;62812;55.188;61.302;2023-03-12T03:45:15;-0.81;46.19
74376;HTU21D;62812;55.188;61.302;2023-03-12T03:47:43;-0.61;47.52
74376;HTU21D;62812;55.188;61.302;2023-03-12T03:50:12;-0.35;44.65
74376;HTU21D;62812;55.188;61.302;2023-03-12T03:52:40;-0.02;43.22
74376;HTU21D;62812;55.188;61.302;2023-03-12T03:55:07;0.12;44.32
74376;HTU21D;62812;55.188;61.302;2023-03-12T03:57:34;0.19;44.13
74376;HTU21D;62812;55.188;61.302;2023-03-12T04:00:04;0.32;43.50
74376;HTU21D;62812;55.188;61.302;2023-03-12T04:02:34;0.46;43.26
74376;HTU21D;62812;55.188;61.302;2023-03-12T04:05:04;0.62;43.58
74376;HTU21D;62812;55.188;61.302;2023-03-12T04:07:30;0.75;43.26
74376;HTU21D;62812;55.188;61.302;2023-03-12T04:09:58;0.80;43.11
74376;HTU21D;62812;55.188;61.302;2023-03-12T04:12:27;0.73;43.09
74376;HTU21D;62812;55.188;61.302;2023-03-12T04:14:54;0.75;42.87
74376;HTU21D;62812;55.188;61.302;2023-03-12T04:17:24;0.71;42.90
74376;HTU21D;62812;55.188;61.302;2023-03-12T04:19:50;0.71;43.61
74376;HTU21D;62812;55.188;61.302;2023-03-12T04:22:17;0.71;43.16
74376;HTU21D;62812;55.188;61.302;2023-03-12T04:24:44;0.69;43.69
74376;HTU21D;62812;55.188;61.302;2023-03-12T04:27:14;0.68;43.72
74376;HTU21D;62812;55.188;61.302;2023-03-12T04:29:40;0.71;43.72
74376;HTU21D;62812;55.188;61.302;2023-03-12T04:32:11;0.68;43.42
74376;HTU21D;62812;55.188;61.302;2023-03-12T04:34:37;0.68;42.94
74376;HTU21D;62812;55.188;61.302;2023-03-12T04:37:07;0.64;43.57
74376;HTU21D;62812;55.188;61.302;2023-03-12T04:39:33;0.59;43.61
74376;HTU21D;62812;55.188;61.302;2023-03-12T04:42:00;0.63;43.84
74376;HTU21D;62812;55.188;61.302;2023-03-12T04:44:28;0.51;43.57
74376;HTU21D;62812;55.188;61.302;2023-03-12T04:46:54;0.44;44.01
74376;HTU21D;62812;55.188;61.302;2023-03-12T04:49:23;0.39;42.39
74376;HTU21D;62812;55.188;61.302;2023-03-12T04:51:50;0.43;42.69
74376;HTU21D;62812;55.188;61.302;2023-03-12T04:54:17;0.47;43.08
74376;HTU21D;62812;55.188;61.302;2023-03-12T04:56:47;0.43;43.57
74376;HTU21D;62812;55.188;61.302;2023-03-12T04:59:17;0.37;43.64
74376;HTU21D;62812;55.188;61.302;2023-03-12T05:01:47;0.37;43.80
74376;HTU21D;62812;55.188;61.302;2023-03-12T05:04:16;0.13;42.87
74376;HTU21D;62812;55.188;61.302;2023-03-12T05:06:44;0.10;43.75
74376;HTU21D;62812;55.188;61.302;2023-03-12T05:09:13;0.14;43.45
74376;HTU21D;62812;55.188;61.302;2023-03-12T05:11:40;0.23;43.04
74376;HTU21D;62812;55.188;61.302;2023-03-12T05:14:08;0.34;43.98
74376;HTU21D;62812;55.188;61.302;2023-03-12T05:16:35;0.52;43.16
74376;HTU21D;62812;55.188;61.302;2023-03-12T05:19:04;0.57;43.26
74376;HTU21D;62812;55.188;61.302;2023-03-12T05:21:31;0.49;43.34
74376;HTU21D;62812;55.188;61.302;2023-03-12T05:23:58;0.60;42.84
74376;HTU21D;62812;55.188;61.302;2023-03-12T05:26:28;0.61;42.27
74376;HTU21D;62812;55.188;61.302;2023-03-12T05:28:57;0.76;43.41
74376;HTU21D;62812;55.188;61.302;2023-03-12T05:31:24;0.77;42.96
74376;HTU21D;62812;55.188;61.302;2023-03-12T05:33:52;0.83;43.75
74376;HTU21D;62812;55.188;61.302;2023-03-12T05:36:26;0.93;41.83
74376;HTU21D;62812;55.188;61.302;2023-03-12T05:39:01;0.90;42.03
74376;HTU21D;62812;55.188;61.302;2023-03-12T05:41:40;0.82;41.84
74376;HTU21D;62812;55.188;61.302;2023-03-12T05:44:10;0.99;41.97
74376;HTU21D;62812;55.188;61.302;2023-03-12T05:46:41;0.92;42.91
74376;HTU21D;62812;55.188;61.302;2023-03-12T05:49:30;1.01;42.92
74376;HTU21D;62812;55.188;61.302;2023-03-12T05:52:06;1.09;40.33
74376;HTU21D;62812;55.188;61.302;2023-03-12T05:54:34;1.02;40.96
74376;HTU21D;62812;55.188;61.302;2023-03-12T05:57:05;0.96;43.64
74376;HTU21D;62812;55.188;61.302;2023-03-12T05:59:34;0.97;41.21
74376;HTU21D;62812;55.188;61.302;2023-03-12T06:02:04;0.93;41.62
74376;HTU21D;62812;55.188;61.302;2023-03-12T06:04:32;0.84;41.15
74376;HTU21D;62812;55.188;61.302;2023-03-12T06:07:05;0.71;41.36
74376;HTU21D;62812;55.188;61.302;2023-03-12T06:09:38;0.67;42.86
74376;HTU21D;62812;55.188;61.302;2023-03-12T06:12:05;0.65;42.50
74376;HTU21D;62812;55.188;61.302;2023-03-12T06:14:37;0.62;44.51
74376;HTU21D;62812;55.188;61.302;2023-03-12T06:17:07;0.62;43.30
74376;HTU21D;62812;55.188;61.302;2023-03-12T06:19:38;0.64;45.13
74376;HTU21D;62812;55.188;61.302;2023-03-12T06:22:11;0.67;41.65
74376;HTU21D;62812;55.188;61.302;2023-03-12T06:24:41;0.79;45.77
74376;HTU21D;62812;55.188;61.302;2023-03-12T06:27:08;0.84;44.25
74376;HTU21D;62812;55.188;61.302;2023-03-12T06:29:47;0.92;42.75
74376;HTU21D;62812;55.188;61.302;2023-03-12T06:32:33;0.96;43.17
74376;HTU21D;62812;55.188;61.302;2023-03-12T06:35:00;0.73;41.28
74376;HTU21D;62812;55.188;61.302;2023-03-12T06:37:32;0.82;45.61
74376;HTU21D;62812;55.188;61.302;2023-03-12T06:39:59;1.06;45.08
74376;HTU21D;62812;55.188;61.302;2023-03-12T06:45:01;1.39;41.37
74376;HTU21D;62812;55.188;61.302;2023-03-12T06:47:32;1.61;45.46
74376;HTU21D;62812;55.188;61.302;2023-03-12T06:50:03;1.81;43.10
74376;HTU21D;62812;55.188;61.302;2023-03-12T06:52:29;2.01;42.74
74376;HTU21D;62812;55.188;61.302;2023-03-12T06:54:57;2.14;41.78
74376;HTU21D;62812;55.188;61.302;2023-03-12T06:57:24;2.23;41.02
74376;HTU21D;62812;55.188;61.302;2023-03-12T06:59:50;2.16;37.77
74376;HTU21D;62812;55.188;61.302;2023-03-12T07:02:17;2.31;42.42
74376;HTU21D;62812;55.188;61.302;2023-03-12T07:04:44;2.19;40.82
74376;HTU21D;62812;55.188;61.302;2023-03-12T07:07:10;2.09;38.40
74376;HTU21D;62812;55.188;61.302;2023-03-12T07:09:37;2.02;38.43
74376;HTU21D;62812;55.188;61.302;2023-03-12T07:12:08;2.06;40.75
74376;HTU21D;62812;55.188;61.302;2023-03-12T07:14:35;1.97;43.21
74376;HTU21D;62812;55.188;61.302;2023-03-12T07:17:07;1.90;48.83
74376;HTU21D;62812;55.188;61.302;2023-03-12T07:19:33;2.01;47.90
74376;HTU21D;62812;55.188;61.302;2023-03-12T07:22:01;2.12;39.62
74376;HTU21D;62812;55.188;61.302;2023-03-12T07:24:28;2.21;43.13
74376;HTU21D;62812;55.188;61.302;2023-03-12T07:26:54;2.01;40.00
74376;HTU21D;62812;55.188;61.302;2023-03-12T07:29:22;2.01;40.12
74376;HTU21D;62812;55.188;61.302;2023-03-12T07:31:49;1.95;40.57
74376;HTU21D;62812;55.188;61.302;2023-03-12T07:34:15;2.02;39.53
74376;HTU21D;62812;55.188;61.302;2023-03-12T07:36:41;1.88;45.16
74376;HTU21D;62812;55.188;61.302;2023-03-12T07:39:17;2.08;42.53
74376;HTU21D;62812;55.188;61.302;2023-03-12T07:41:44;2.11;39.72
74376;HTU21D;62812;55.188;61.302;2023-03-12T07:44:10;2.07;38.47
74376;HTU21D;62812;55.188;61.302;2023-03-12T07:46:40;1.91;38.23
74376;HTU21D;62812;55.188;61.302;2023-03-12T07:49:07;1.86;41.78
74376;HTU21D;62812;55.188;61.302;2023-03-12T07:51:34;1.82;38.26
74376;HTU21D;62812;55.188;61.302;2023-03-12T07:54:00;1.71;38.94
74376;HTU21D;62812;55.188;61.302;2023-03-12T07:56:27;1.60;40.28
74376;HTU21D;62812;55.188;61.302;2023-03-12T07:58:54;1.58;38.01
74376;HTU21D;62812;55.188;61.302;2023-03-12T08:01:21;1.62;40.13
74376;HTU21D;62812;55.188;61.302;2023-03-12T08:03:49;1.65;39.59
74376;HTU21D;62812;55.188;61.302;2023-03-12T08:06:18;1.76;40.10
74376;HTU21D;62812;55.188;61.302;2023-03-12T08:08:44;1.83;39.35
74376;HTU21D;62812;55.188;61.302;2023-03-12T08:11:12;2.00;40.09
74376;HTU21D;62812;55.188;61.302;2023-03-12T08:13:38;1.95;38.34
74376;HTU21D;62812;55.188;61.302;2023-03-12T08:16:05;1.96;38.24
74376;HTU21D;62812;55.188;61.302;2023-03-12T08:18:34;1.88;37.79
74376;HTU21D;62812;55.188;61.302;2023-03-12T08:21:03;1.88;42.43
74376;HTU21D;62812;55.188;61.302;2023-03-12T08:23:30;2.13;43.48
74376;HTU21D;62812;55.188;61.302;2023-03-12T08:26:00;2.08;39.34
74376;HTU21D;62812;55.188;61.302;2023-03-12T08:28:27;2.00;39.75
74376;HTU21D;62812;55.188;61.302;2023-03-12T08:30:54;2.20;39.48
74376;HTU21D;62812;55.188;61.302;2023-03-12T08:33:23;2.08;37.79
74376;HTU21D;62812;55.188;61.302;2023-03-12T08:35:50;1.92;37.76
74376;HTU21D;62812;55.188;61.302;2023-03-12T08:38:18;2.13;37.88
74376;HTU21D;62812;55.188;61.302;2023-03-12T08:40:44;2.05;38.70
74376;HTU21D;62812;55.188;61.302;2023-03-12T08:43:12;2.21;40.17
74376;HTU21D;62812;55.188;61.302;2023-03-12T08:45:38;2.28;39.19
74376;HTU21D;62812;55.188;61.302;2023-03-12T08:48:05;2.43;41.63
74376;HTU21D;62812;55.188;61.302;2023-03-12T08:50:33;2.78;44.03
74376;HTU21D;62812;55.188;61.302;2023-03-12T08:53:04;2.95;41.46
74376;HTU21D;62812;55.188;61.302;2023-03-12T08:55:38;3.06;40.30
74376;HTU21D;62812;55.188;61.302;2023-03-12T08:58:05;2.93;40.34
74376;HTU21D;62812;55.188;61.302;2023-03-12T09:00:31;3.10;43.16
74376;HTU21D;62812;55.188;61.302;2023-03-12T09:03:01;2.98;36.45
74376;HTU21D;62812;55.188;61.302;2023-03-12T09:05:27;2.91;40.78
74376;HTU21D;62812;55.188;61.302;2023-03-12T09:07:58;2.91;37.22
74376;HTU21D;62812;55.188;61.302;2023-03-12T09:10:24;3.04;42.00
74376;HTU21D;62812;55.188;61.302;2023-03-12T09:12:53;3.24;41.37
74376;HTU21D;62812;55.188;61.302;2023-03-12T09:15:20;3.39;38.46
74376;HTU21D;62812;55.188;61.302;2023-03-12T09:17:52;3.12;37.01
74376;HTU21D;62812;55.188;61.302;2023-03-12T09:20:25;2.84;38.43
74376;HTU21D;62812;55.188;61.302;2023-03-12T09:22:52;2.90;39.91
74376;HTU21D;62812;55.188;61.302;2023-03-12T09:25:20;2.81;36.12
74376;HTU21D;62812;55.188;61.302;2023-03-12T09:27:48;2.58;36.58
74376;HTU21D;62812;55.188;61.302;2023-03-12T09:30:20;2.44;37.40
74376;HTU21D;62812;55.188;61.302;2023-03-12T09:32:47;2.34;38.15
74376;HTU21D;62812;55.188;61.302;2023-03-12T09:35:15;2.17;37.64
74376;HTU21D;62812;55.188;61.302;2023-03-12T09:37:47;2.23;38.01
74376;HTU21D;62812;55.188;61.302;2023-03-12T09:40:16;2.17;38.40
74376;HTU21D;62812;55.188;61.302;2023-03-12T09:42:45;2.24;40.23
74376;HTU21D;62812;55.188;61.302;2023-03-12T09:45:16;2.44;38.74
74376;HTU21D;62812;55.188;61.302;2023-03-12T09:47:48;2.55;42.74
74376;HTU21D;62812;55.188;61.302;2023-03-12T09:50:24;2.80;41.29
74376;HTU21D;62812;55.188;61.302;2023-03-12T09:52:55;2.79;38.17
74376;HTU21D;62812;55.188;61.302;2023-03-12T09:55:26;2.83;40.27
74376;HTU21D;62812;55.188;61.302;2023-03-12T09:57:53;2.75;39.75
74376;HTU21D;62812;55.188;61.302;2023-03-12T10:00:23;2.69;41.55
74376;HTU21D;62812;55.188;61.302;2023-03-12T10:06:10;2.84;43.30
74376;HTU21D;62812;55.188;61.302;2023-03-12T10:08:52;2.93;43.62
74376;HTU21D;62812;55.188;61.302;2023-03-12T10:11:34;3.24;46.27
74376;HTU21D;62812;55.188;61.302;2023-03-12T10:14:26;3.34;38.36
74376;HTU21D;62812;55.188;61.302;2023-03-12T10:17:03;3.34;43.66
74376;HTU21D;62812;55.188;61.302;2023-03-12T10:20:02;3.48;38.72
74376;HTU21D;62812;55.188;61.302;2023-03-12T10:22:46;3.27;37.86
74376;HTU21D;62812;55.188;61.302;2023-03-12T10:25:24;3.12;45.96
74376;HTU21D;62812;55.188;61.302;2023-03-12T10:28:11;3.19;40.85
74376;HTU21D;62812;55.188;61.302;2023-03-12T10:30:40;3.31;49.86
74376;HTU21D;62812;55.188;61.302;2023-03-12T10:33:12;3.31;46.49
74376;HTU21D;62812;55.188;61.302;2023-03-12T10:35:43;3.19;39.68
74376;HTU21D;62812;55.188;61.302;2023-03-12T10:38:13;3.12;43.63
74376;HTU21D;62812;55.188;61.302;2023-03-12T10:40:44;3.05;41.74
74376;HTU21D;62812;55.188;61.302;2023-03-12T10:43:12;3.17;44.49
74376;HTU21D;62812;55.188;61.302;2023-03-12T10:45:42;3.20;39.62
74376;HTU21D;62812;55.188;61.302;2023-03-12T10:48:18;3.20;46.94
74376;HTU21D;62812;55.188;61.302;2023-03-12T10:50:59;3.31;43.62
74376;HTU21D;62812;55.188;61.302;2023-03-12T10:53:28;3.44;40.49
74376;HTU21D;62812;55.188;61.302;2023-03-12T10:55:59;3.43;42.28
74376;HTU21D;62812;55.188;61.302;2023-03-12T10:58:31;3.54;41.50
74376;HTU21D;62812;55.188;61.302;2023-03-12T11:01:00;3.36;44.29
74376;HTU21D;62812;55.188;61.302;2023-03-12T11:03:28;3.35;41.10
74376;HTU21D;62812;55.188;61.302;2023-03-12T11:05:58;3.47;43.71
74376;HTU21D;62812;55.188;61.302;2023-03-12T11:08:28;3.55;42.10
74376;HTU21D;62812;55.188;61.302;2023-03-12T11:10:56;3.49;45.06
74376;HTU21D;62812;55.188;61.302;2023-03-12T11:13:29;3.59;45.47
74376;HTU21D;62812;55.188;61.302;2023-03-12T11:15:57;3.59;46.60
74376;HTU21D;62812;55.188;61.302;2023-03-12T11:18:30;3.63;44.29
74376;HTU21D;62812;55.188;61.302;2023-03-12T11:21:14;3.70;43.12
74376;HTU21D;62812;55.188;61.302;2023-03-12T11:23:43;3.76;46.25
74376;HTU21D;62812;55.188;61.302;2023-03-12T11:26:15;3.73;44.66
74376;HTU21D;62812;55.188;61.302;2023-03-12T11:28:44;3.72;42.50
74376;HTU21D;62812;55.188;61.302;2023-03-12T11:31:18;3.60;42.52
74376;HTU21D;62812;55.188;61.302;2023-03-12T11:33:45;3.33;45.43
74376;HTU21D;62812;55.188;61.302;2023-03-12T11:36:28;3.40;47.64
74376;HTU21D;62812;55.188;61.302;2023-03-12T11:39:04;3.39;45.51
74376;HTU21D;62812;55.188;61.302;2023-03-12T11:41:54;3.45;44.13
74376;HTU21D;62812;55.188;61.302;2023-03-12T11:44:26;3.47;48.34
74376;HTU21D;62812;55.188;61.302;2023-03-12T11:47:15;3.70;51.69
74376;HTU21D;62812;55.188;61.302;2023-03-12T11:50:04;3.65;44.04
74376;HTU21D;62812;55.188;61.302;2023-03-12T11:52:44;3.79;43.21
74376;HTU21D;62812;55.188;61.302;2023-03-12T11:55:20;3.64;43.46
74376;HTU21D;62812;55.188;61.302;2023-03-12T11:58:01;3.47;50.76
74376;HTU21D;62812;55.188;61.302;2023-03-12T12:00:35;3.38;50.81
74376;HTU21D;62812;55.188;61.302;2023-03-12T12:06:15;3.68;54.51
74376;HTU21D;62812;55.188;61.302;2023-03-12T12:09:19;3.70;56.02
74376;HTU21D;62812;55.188;61.302;2023-03-12T12:11:57;3.69;56.50
74376;HTU21D;62812;55.188;61.302;2023-03-12T12:14:42;3.70;56.04
74376;HTU21D;62812;55.188;61.302;2023-03-12T12:17:18;3.71;46.52
74376;HTU21D;62812;55.188;61.302;2023-03-12T12:20:00;3.64;43.57
74376;HTU21D;62812;55.188;61.302;2023-03-12T12:22:42;3.71;57.53
74376;HTU21D;62812;55.188;61.302;2023-03-12T12:25:24;3.89;57.00
74376;HTU21D;62812;55.188;61.302;2023-03-12T12:28:17;3.93;45.92
74376;HTU21D;62812;55.188;61.302;2023-03-12T12:30:54;3.80;45.48
74376;HTU21D;62812;55.188;61.302;2023-03-12T12:33:33;3.73;48.09
74376;HTU21D;62812;55.188;61.302;2023-03-12T12:36:07;3.65;53.23
74376;HTU21D;62812;55.188;61.302;2023-03-12T12:38:39;3.76;56.42
74376;HTU21D;62812;55.188;61.302;2023-03-12T12:41:12;3.86;50.54
74376;HTU21D;62812;55.188;61.302;2023-03-12T12:43:41;3.72;50.21
74376;HTU21D;62812;55.188;61.302;2023-03-12T12:46:12;3.59;43.42
74376;HTU21D;62812;55.188;61.302;2023-03-12T12:48:42;3.55;46.02
74376;HTU21D;62812;55.188;61.302;2023-03-12T12:51:10;3.49;49.31
74376;HTU21D;62812;55.188;61.302;2023-03-12T12:53:44;3.52;56.77
74376;HTU21D;62812;55.188;61.302;2023-03-12T12:56:20;3.31;47.50
74376;HTU21D;62812;55.188;61.302;2023-03-12T12:59:12;3.21;46.76
74376;HTU21D;62812;55.188;61.302;2023-03-12T13:01:46;3.32;53.62
74376;HTU21D;62812;55.188;61.302;2023-03-12T13:04:18;3.19;47.12
74376;HTU21D;62812;55.188;61.302;2023-03-12T13:06:54;3.26;49.37
74376;HTU21D;62812;55.188;61.302;2023-03-12T13:09:34;3.28;53.56
74376;HTU21D;62812;55.188;61.302;2023-03-12T13:12:19;3.14;52.40
74376;HTU21D;62812;55.188;61.302;2023-03-12T13:14:50;3.17;55.14
74376;HTU21D;62812;55.188;61.302;2023-03-12T13:20:13;3.03;54.88
74376;HTU21D;62812;55.188;61.302;2023-03-12T13:23:02;2.96;48.34
74376;HTU21D;62812;55.188;61.302;2023-03-12T13:25:54;2.73;49.10
74376;HTU21D;62812;55.188;61.302;2023-03-12T13:28:36;2.55;49.63
74376;HTU21D;62812;55.188;61.302;2023-03-12T13:31:39;2.56;53.69
74376;HTU21D;62812;55.188;61.302;2023-03-12T13:41:25;2.51;61.68
74376;HTU21D;62812;55.188;61.302;2023-03-12T13:43:56;2.68;56.55
74376;HTU21D;62812;55.188;61.302;2023-03-12T13:46:35;2.50;60.18
74376;HTU21D;62812;55.188;61.302;2023-03-12T13:49:09;2.60;49.74
74376;HTU21D;62812;55.188;61.302;2023-03-12T13:51:45;2.47;52.91
74376;HTU21D;62812;55.188;61.302;2023-03-12T13:54:16;2.52;64.43
74376;HTU21D;62812;55.188;61.302;2023-03-12T13:56:57;2.55;62.24
74376;HTU21D;62812;55.188;61.302;2023-03-12T13:59:27;2.57;47.46
74376;HTU21D;62812;55.188;61.302;2023-03-12T14:01:59;2.58;56.70
74376;HTU21D;62812;55.188;61.302;2023-03-12T14:04:32;2.39;48.66
74376;HTU21D;62812;55.188;61.302;2023-03-12T14:07:17;2.28;58.87
74376;HTU21D;62812;55.188;61.302;2023-03-12T14:09:58;2.22;51.21
74376;HTU21D;62812;55.188;61.302;2023-03-12T14:12:31;2.13;48.70
74376;HTU21D;62812;55.188;61.302;2023-03-12T14:15:17;1.98;58.09
74376;HTU21D;62812;55.188;61.302;2023-03-12T14:17:54;1.86;58.01
74376;HTU21D;62812;55.188;61.302;2023-03-12T14:20:22;1.99;57.36
74376;HTU21D;62812;55.188;61.302;2023-03-12T14:22:54;1.86;53.44
74376;HTU21D;62812;55.188;61.302;2023-03-12T14:25:30;1.61;51.84
74376;HTU21D;62812;55.188;61.302;2023-03-12T14:27:58;1.45;55.55
74376;HTU21D;62812;55.188;61.302;2023-03-12T14:30:43;1.40;54.78
74376;HTU21D;62812;55.188;61.302;2023-03-12T14:33:14;1.38;52.13
74376;HTU21D;62812;55.188;61.302;2023-03-12T14:35:52;1.38;56.83
74376;HTU21D;62812;55.188;61.302;2023-03-12T14:38:25;1.36;59.22
74376;HTU21D;62812;55.188;61.302;2023-03-12T14:40:59;1.37;53.60
74376;HTU21D;62812;55.188;61.302;2023-03-12T14:43:30;1.40;57.23
74376;HTU21D;62812;55.188;61.302;2023-03-12T14:46:04;1.43;56.23
74376;HTU21D;62812;55.188;61.302;2023-03-12T14:48:39;1.46;56.61
74376;HTU21D;62812;55.188;61.302;2023-03-12T14:51:20;1.54;60.02
74376;HTU21D;62812;55.188;61.302;2023-03-12T14:53:50;1.43;56.16
74376;HTU21D;62812;55.188;61.302;2023-03-12T14:56:23;1.48;55.11
74376;HTU21D;62812;55.188;61.302;2023-03-12T14:58:50;1.48;57.24
74376;HTU21D;62812;55.188;61.302;2023-03-12T15:01:22;1.40;56.13
74376;HTU21D;62812;55.188;61.302;2023-03-12T15:03:53;1.48;58.07
74376;HTU21D;62812;55.188;61.302;2023-03-12T15:06:26;1.46;58.22
74376;HTU21D;62812;55.188;61.302;2023-03-12T15:08:54;1.45;60.00
74376;HTU21D;62812;55.188;61.302;2023-03-12T15:11:23;1.21;54.14
74376;HTU21D;62812;55.188;61.302;2023-03-12T15:13:51;1.05;53.91
74376;HTU21D;62812;55.188;61.302;2023-03-12T15:16:21;1.04;58.27
74376;HTU21D;62812;55.188;61.302;2023-03-12T15:18:53;1.05;56.13
74376;HTU21D;62812;55.188;61.302;2023-03-12T15:21:20;1.06;55.11
74376;HTU21D;62812;55.188;61.302;2023-03-12T15:23:49;0.98;61.08
74376;HTU21D;62812;55.188;61.302;2023-03-12T15:26:27;1.05;57.55
74376;HTU21D;62812;55.188;61.302;2023-03-12T15:28:56;1.09;52.83
74376;HTU21D;62812;55.188;61.302;2023-03-12T15:31:44;0.94;54.98
74376;HTU21D;62812;55.188;61.302;2023-03-12T15:34:12;0.82;53.94
74376;HTU21D;62812;55.188;61.302;2023-03-12T15:36:46;0.77;56.31
74376;HTU21D;62812;55.188;61.302;2023-03-12T15:39:23;0.71;61.34
74376;HTU21D;62812;55.188;61.302;2023-03-12T15:41:53;0.78;58.56
74376;HTU21D;62812;55.188;61.302;2023-03-12T15:44:21;0.65;59.31
74376;HTU21D;62812;55.188;61.302;2023-03-12T15:47:02;0.60;56.85
74376;HTU21D;62812;55.188;61.302;2023-03-12T15:49:36;0.59;57.29
74376;HTU21D;62812;55.188;61.302;2023-03-12T15:52:11;0.35;55.97
74376;HTU21D;62812;55.188;61.302;2023-03-12T15:57:49;-0.12;54.93